createdAt,value
2018-07-31T00:02:12.757Z,5.97
2018-07-31T00:04:41.040Z,6.67
2018-07-31T00:07:09.545Z,6.17
2018-07-31T00:09:38.020Z,5.50
2018-07-31T00:12:06.321Z,7.87
2018-07-31T00:14:34.605Z,6.40
2018-07-31T00:17:02.921Z,6.20
2018-07-31T00:19:31.349Z,7.00
2018-07-31T00:21:59.760Z,6.30
2018-07-31T00:24:28.190Z,6.20
2018-07-31T00:26:56.828Z,7.10
2018-07-31T00:29:25.173Z,5.80
2018-07-31T00:31:53.580Z,7.83
2018-07-31T00:34:21.878Z,7.20
2018-07-31T00:36:50.758Z,6.43
2018-07-31T00:39:19.048Z,5.73
2018-07-31T00:41:47.391Z,6.33
2018-07-31T00:44:15.768Z,7.40
2018-07-31T00:46:44.154Z,7.37
2018-07-31T00:49:12.504Z,5.97
2018-07-31T00:51:40.837Z,5.70
2018-07-31T00:54:09.342Z,6.50
2018-07-31T00:56:37.652Z,6.47
2018-07-31T00:59:05.961Z,5.40
2018-07-31T01:01:34.416Z,5.80
2018-07-31T01:04:02.854Z,7.20
2018-07-31T01:06:37.422Z,6.77
2018-07-31T01:09:07.522Z,6.90
2018-07-31T01:11:35.825Z,6.93
2018-07-31T01:14:04.865Z,6.80
2018-07-31T01:16:34.168Z,6.70
2018-07-31T01:19:02.635Z,6.03
2018-07-31T01:21:30.932Z,5.87
2018-07-31T01:23:59.352Z,6.13
2018-07-31T01:26:27.728Z,6.03
2018-07-31T01:28:56.100Z,6.60
2018-07-31T01:31:24.462Z,6.50
2018-07-31T01:33:52.798Z,5.67
2018-07-31T01:36:21.145Z,6.00
2018-07-31T01:38:50.041Z,6.43
2018-07-31T01:41:18.613Z,6.63
2018-07-31T01:43:47.000Z,6.50
2018-07-31T01:46:15.280Z,5.80
2018-07-31T01:48:43.674Z,6.93
2018-07-31T01:51:11.952Z,6.70
2018-07-31T01:53:40.259Z,6.33
2018-07-31T01:56:08.576Z,7.13
2018-07-31T01:58:36.896Z,6.00
2018-07-31T02:01:05.210Z,6.53
2018-07-31T02:03:33.552Z,7.40
2018-07-31T02:06:02.118Z,7.70
2018-07-31T02:08:30.455Z,7.17
2018-07-31T02:10:58.782Z,6.40
2018-07-31T02:13:27.098Z,6.43
2018-07-31T02:15:55.559Z,7.13
2018-07-31T02:18:23.877Z,7.40
2018-07-31T02:20:52.328Z,6.77
2018-07-31T02:23:20.644Z,7.03
2018-07-31T02:25:49.045Z,6.43
2018-07-31T02:28:17.563Z,6.23
2018-07-31T02:30:46.017Z,6.63
2018-07-31T02:33:15.173Z,6.10
2018-07-31T02:35:43.543Z,5.90
2018-07-31T02:38:11.840Z,6.73
2018-07-31T02:40:40.156Z,6.30
2018-07-31T02:43:08.475Z,6.93
2018-07-31T02:45:36.796Z,7.50
2018-07-31T02:48:05.408Z,6.60
2018-07-31T02:50:34.735Z,7.27
2018-07-31T02:53:03.084Z,6.80
2018-07-31T02:55:31.493Z,6.70
2018-07-31T02:57:59.828Z,6.43
2018-07-31T03:00:28.237Z,6.70
2018-07-31T03:02:56.689Z,6.80
2018-07-31T03:05:25.004Z,6.10
2018-07-31T03:07:53.420Z,6.00
2018-07-31T03:10:21.760Z,6.03
2018-07-31T03:12:50.111Z,5.73
2018-07-31T03:15:18.505Z,6.80
2018-07-31T03:17:47.521Z,6.23
2018-07-31T03:20:15.839Z,6.17
2018-07-31T03:22:44.224Z,6.00
2018-07-31T03:25:12.609Z,6.07
2018-07-31T03:27:40.892Z,5.30
2018-07-31T03:30:09.408Z,6.40
2018-07-31T03:32:37.739Z,7.00
2018-07-31T03:35:06.434Z,6.83
2018-07-31T03:37:34.749Z,6.57
2018-07-31T03:40:03.217Z,6.40
2018-07-31T03:42:32.239Z,6.80
2018-07-31T03:45:00.600Z,6.50
2018-07-31T03:47:28.878Z,6.30
2018-07-31T03:49:57.276Z,6.60
2018-07-31T03:52:25.662Z,11.33
2018-07-31T03:54:54.072Z,13.40
2018-07-31T03:57:22.624Z,12.30
2018-07-31T03:59:51.145Z,11.07
2018-07-31T04:02:19.513Z,22.17
2018-07-31T04:04:47.809Z,16.80
2018-07-31T04:07:16.299Z,17.30
2018-07-31T04:09:45.097Z,9.30
2018-07-31T04:12:14.240Z,7.50
2018-07-31T04:14:44.189Z,7.20
2018-07-31T04:17:13.592Z,8.40
2018-07-31T04:19:43.453Z,7.40
2018-07-31T04:22:13.985Z,6.67
2018-07-31T04:24:43.290Z,6.67
2018-07-31T04:27:12.300Z,6.60
2018-07-31T04:29:41.573Z,6.63
2018-07-31T04:32:10.621Z,6.10
2018-07-31T04:34:40.496Z,6.27
2018-07-31T04:37:12.243Z,6.53
2018-07-31T04:39:43.073Z,7.27
2018-07-31T04:42:12.088Z,5.67
2018-07-31T04:44:40.408Z,6.40
2018-07-31T04:47:08.725Z,6.40
2018-07-31T04:49:37.120Z,6.63
2018-07-31T04:52:05.497Z,5.47
2018-07-31T04:54:33.872Z,6.03
2018-07-31T04:57:02.280Z,5.63
2018-07-31T04:59:30.810Z,6.80
2018-07-31T05:01:59.185Z,6.37
2018-07-31T05:04:27.502Z,6.60
2018-07-31T05:06:55.805Z,6.83
2018-07-31T05:09:24.233Z,7.80
2018-07-31T05:11:52.548Z,7.33
2018-07-31T05:14:20.898Z,6.87
2018-07-31T05:16:49.251Z,7.53
2018-07-31T05:19:17.544Z,6.90
2018-07-31T05:21:46.068Z,6.60
2018-07-31T05:24:14.347Z,6.10
2018-07-31T05:26:43.756Z,6.67
2018-07-31T05:29:12.085Z,5.93
2018-07-31T05:31:40.409Z,7.00
2018-07-31T05:34:08.848Z,7.37
2018-07-31T05:36:37.166Z,6.07
2018-07-31T05:39:07.426Z,7.43
2018-07-31T05:41:35.720Z,6.97
2018-07-31T05:44:04.371Z,6.37
2018-07-31T05:46:32.936Z,6.70
2018-07-31T05:49:01.284Z,7.50
2018-07-31T05:51:29.568Z,6.80
2018-07-31T05:53:58.349Z,6.53
2018-07-31T05:56:27.007Z,8.00
2018-07-31T05:58:55.724Z,7.40
2018-07-31T06:01:24.040Z,6.97
2018-07-31T06:03:52.480Z,6.10
2018-07-31T06:06:20.826Z,5.63
2018-07-31T06:08:49.237Z,6.93
2018-07-31T06:11:17.692Z,5.40
2018-07-31T06:13:46.001Z,6.10
2018-07-31T06:16:14.308Z,6.93
2018-07-31T06:18:42.637Z,6.30
2018-07-31T06:21:10.965Z,6.47
2018-07-31T06:23:39.281Z,5.37
2018-07-31T06:26:07.560Z,5.90
2018-07-31T06:28:36.030Z,5.60
2018-07-31T06:31:04.321Z,5.50
2018-07-31T06:33:33.474Z,5.83
2018-07-31T06:36:01.974Z,5.60
2018-07-31T06:38:30.299Z,5.17
2018-07-31T06:40:58.628Z,6.13
2018-07-31T06:43:26.979Z,5.90
2018-07-31T06:45:55.490Z,6.57
2018-07-31T06:48:25.247Z,5.57
2018-07-31T06:50:53.979Z,6.70
2018-07-31T06:53:22.394Z,6.30
2018-07-31T06:55:50.925Z,6.10
2018-07-31T06:58:19.312Z,6.50
2018-07-31T07:00:47.604Z,5.90
2018-07-31T07:03:16.172Z,5.50
2018-07-31T07:05:44.494Z,6.07
2018-07-31T07:08:12.820Z,6.03
2018-07-31T07:10:41.141Z,5.97
2018-07-31T07:13:09.467Z,6.20
2018-07-31T07:15:37.790Z,6.20
2018-07-31T07:18:06.095Z,6.60
2018-07-31T07:20:34.400Z,6.23
2018-07-31T07:23:02.731Z,5.57
2018-07-31T07:25:31.062Z,6.50
2018-07-31T07:28:00.398Z,5.90
2018-07-31T07:30:28.710Z,5.43
2018-07-31T07:32:56.985Z,6.87
2018-07-31T07:35:25.321Z,5.93
2018-07-31T07:37:53.884Z,6.90
2018-07-31T07:40:22.238Z,6.10
2018-07-31T07:42:50.643Z,5.97
2018-07-31T07:45:19.048Z,5.00
2018-07-31T07:47:47.445Z,5.27
2018-07-31T07:50:15.821Z,5.00
2018-07-31T07:52:44.109Z,6.13
2018-07-31T07:55:12.562Z,5.10
2018-07-31T07:57:40.925Z,5.70
2018-07-31T08:00:09.852Z,5.90
2018-07-31T08:02:38.592Z,5.40
2018-07-31T08:05:07.533Z,4.80
2018-07-31T08:07:35.951Z,5.50
2018-07-31T08:10:04.971Z,5.53
2018-07-31T08:12:33.353Z,5.70
2018-07-31T08:15:01.775Z,5.87
2018-07-31T08:17:30.685Z,5.53
2018-07-31T08:19:59.100Z,5.77
2018-07-31T08:22:27.469Z,5.20
2018-07-31T08:24:55.776Z,5.63
2018-07-31T08:27:24.072Z,5.00
2018-07-31T08:29:52.617Z,5.67
2018-07-31T08:32:20.969Z,4.57
2018-07-31T08:34:49.316Z,6.00
2018-07-31T08:37:17.715Z,6.23
2018-07-31T08:39:46.180Z,4.70
2018-07-31T08:42:14.787Z,4.80
2018-07-31T08:44:43.070Z,5.40
2018-07-31T08:47:11.466Z,5.20
2018-07-31T08:49:39.826Z,4.83
2018-07-31T08:52:08.172Z,5.37
2018-07-31T08:54:36.484Z,5.27
2018-07-31T08:57:04.815Z,5.77
2018-07-31T08:59:33.125Z,5.43
2018-07-31T09:02:01.461Z,5.30
2018-07-31T09:04:29.787Z,6.53
2018-07-31T09:06:58.207Z,6.00
2018-07-31T09:09:26.583Z,5.93
2018-07-31T09:11:55.042Z,5.70
2018-07-31T09:14:23.408Z,5.70
2018-07-31T09:16:51.792Z,5.87
2018-07-31T09:19:20.471Z,6.43
2018-07-31T09:21:48.889Z,5.50
2018-07-31T09:24:17.164Z,5.43
2018-07-31T09:26:45.481Z,5.40
2018-07-31T09:29:13.971Z,4.80
2018-07-31T09:31:42.397Z,5.33
2018-07-31T09:34:10.904Z,5.60
2018-07-31T09:36:39.333Z,5.10
2018-07-31T09:39:08.398Z,5.60
2018-07-31T09:41:36.817Z,5.10
2018-07-31T09:44:05.135Z,5.43
2018-07-31T09:46:33.557Z,4.90
2018-07-31T09:49:01.913Z,4.23
2018-07-31T09:51:30.323Z,5.23
2018-07-31T09:53:58.721Z,5.37
2018-07-31T09:56:27.232Z,4.80
2018-07-31T09:58:55.750Z,4.20
2018-07-31T10:01:24.113Z,5.20
2018-07-31T10:03:52.486Z,5.03
2018-07-31T10:06:20.866Z,5.17
2018-07-31T10:08:49.165Z,5.00
2018-07-31T10:11:17.620Z,5.90
2018-07-31T10:13:45.980Z,4.87
2018-07-31T10:16:14.372Z,4.97
2018-07-31T10:18:42.799Z,5.30
2018-07-31T10:21:11.135Z,5.50
2018-07-31T10:23:39.527Z,5.40
2018-07-31T10:26:07.884Z,4.30
2018-07-31T10:28:36.301Z,4.93
2018-07-31T10:31:04.740Z,4.53
2018-07-31T10:33:32.993Z,5.43
2018-07-31T10:36:01.398Z,5.00
2018-07-31T10:38:29.895Z,4.80
2018-07-31T10:40:58.197Z,5.03
2018-07-31T10:43:26.521Z,5.10
2018-07-31T10:45:54.810Z,4.57
2018-07-31T10:48:23.316Z,5.50
2018-07-31T10:50:51.669Z,4.83
2018-07-31T10:53:19.975Z,4.77
2018-07-31T10:55:48.537Z,4.70
2018-07-31T10:58:16.930Z,4.23
2018-07-31T11:00:45.181Z,4.60
2018-07-31T11:03:13.657Z,5.07
2018-07-31T11:05:41.922Z,4.27
2018-07-31T11:08:10.244Z,5.10
2018-07-31T11:10:38.697Z,5.33
2018-07-31T11:13:07.023Z,5.27
2018-07-31T11:15:35.354Z,4.50
2018-07-31T11:18:03.705Z,5.23
2018-07-31T11:20:32.205Z,5.13
2018-07-31T11:23:00.651Z,6.10
2018-07-31T11:25:28.966Z,5.37
2018-07-31T11:27:57.351Z,4.87
2018-07-31T11:30:25.760Z,5.57
2018-07-31T11:32:54.321Z,4.20
2018-07-31T11:35:22.684Z,4.70
2018-07-31T11:37:51.156Z,5.10
2018-07-31T11:40:19.609Z,4.60
2018-07-31T11:42:49.790Z,5.00
2018-07-31T11:45:18.165Z,5.03
2018-07-31T11:47:46.633Z,6.17
2018-07-31T11:50:15.023Z,5.43
2018-07-31T11:52:43.297Z,4.70
2018-07-31T11:55:11.697Z,4.67
2018-07-31T11:57:40.120Z,5.67
2018-07-31T12:00:09.864Z,5.50
2018-07-31T12:02:38.320Z,4.80
2018-07-31T12:05:07.368Z,5.13
2018-07-31T12:07:35.800Z,4.33
2018-07-31T12:10:04.704Z,4.70
2018-07-31T12:12:33.068Z,4.70
2018-07-31T12:15:01.544Z,9.00
2018-07-31T12:17:29.824Z,5.00
2018-07-31T12:19:58.225Z,5.17
2018-07-31T12:22:26.580Z,4.67
2018-07-31T12:24:55.279Z,4.90
2018-07-31T12:27:23.624Z,5.50
2018-07-31T12:29:51.948Z,4.50
2018-07-31T12:32:20.403Z,5.13
2018-07-31T12:34:48.748Z,5.50
2018-07-31T12:37:17.149Z,5.13
2018-07-31T12:39:45.532Z,5.57
2018-07-31T12:42:13.870Z,4.93
2018-07-31T12:44:42.308Z,5.77
2018-07-31T12:47:10.605Z,4.43
2018-07-31T12:49:38.921Z,5.00
2018-07-31T12:52:07.473Z,5.40
2018-07-31T12:54:35.820Z,4.53
2018-07-31T12:57:04.211Z,5.50
2018-07-31T12:59:32.593Z,5.07
2018-07-31T13:02:00.881Z,5.53
2018-07-31T13:04:29.208Z,6.10
2018-07-31T13:06:57.560Z,5.23
2018-07-31T13:09:26.060Z,5.30
2018-07-31T13:11:54.399Z,5.27
2018-07-31T13:14:22.689Z,5.50
2018-07-31T13:16:52.348Z,5.30
2018-07-31T13:19:20.660Z,5.40
2018-07-31T13:21:49.960Z,5.90
2018-07-31T13:24:18.257Z,5.03
2018-07-31T13:26:46.621Z,4.90
2018-07-31T13:29:14.944Z,4.83
2018-07-31T13:31:43.336Z,5.10
2018-07-31T13:34:11.823Z,5.20
2018-07-31T13:36:40.396Z,5.73
2018-07-31T13:39:09.212Z,4.90
2018-07-31T13:41:37.553Z,5.43
2018-07-31T13:44:09.819Z,4.90
2018-07-31T13:46:39.737Z,5.80
2018-07-31T13:49:08.054Z,5.60
2018-07-31T13:51:36.555Z,5.00
2018-07-31T13:54:04.857Z,5.60
2018-07-31T13:56:33.263Z,5.47
2018-07-31T13:59:01.795Z,4.73
2018-07-31T14:01:30.364Z,5.20
2018-07-31T14:03:58.654Z,5.60
2018-07-31T14:06:27.077Z,5.23
2018-07-31T14:08:55.428Z,5.43
2018-07-31T14:11:23.744Z,5.23
2018-07-31T14:13:52.267Z,4.40
2018-07-31T14:16:20.560Z,4.70
2018-07-31T14:18:48.937Z,5.03
2018-07-31T14:21:17.348Z,5.53
2018-07-31T14:23:45.655Z,4.17
2018-07-31T14:26:13.966Z,5.30
2018-07-31T14:28:43.712Z,5.57
2018-07-31T14:31:12.095Z,5.43
2018-07-31T14:33:40.441Z,4.90
2018-07-31T14:36:08.837Z,5.20
2018-07-31T14:38:37.210Z,5.43
2018-07-31T14:41:05.573Z,4.53
2018-07-31T14:43:33.856Z,5.07
2018-07-31T14:46:02.160Z,5.30
2018-07-31T14:48:30.462Z,5.53
2018-07-31T14:50:59.197Z,5.23
2018-07-31T14:53:27.592Z,5.00
2018-07-31T14:55:55.888Z,4.97
2018-07-31T14:58:24.247Z,5.67
2018-07-31T15:00:52.556Z,4.83
2018-07-31T15:03:21.009Z,5.50
2018-07-31T15:05:49.502Z,5.53
2018-07-31T15:08:18.060Z,5.23
2018-07-31T15:10:46.503Z,5.00
2018-07-31T15:13:14.981Z,5.37
2018-07-31T15:15:43.277Z,4.70
2018-07-31T15:18:11.591Z,4.70
2018-07-31T15:20:39.877Z,5.77
2018-07-31T15:23:08.200Z,4.83
2018-07-31T15:25:36.511Z,4.43
2018-07-31T15:28:04.912Z,4.60
2018-07-31T15:30:33.845Z,3.90
2018-07-31T15:33:02.184Z,4.50
2018-07-31T15:35:30.781Z,4.17
2018-07-31T15:37:59.113Z,4.70
2018-07-31T15:40:28.182Z,4.60
2018-07-31T15:42:56.501Z,4.33
2018-07-31T15:45:24.869Z,4.40
2018-07-31T15:47:53.345Z,3.80
2018-07-31T15:50:21.636Z,3.90
2018-07-31T15:52:50.155Z,4.23
2018-07-31T15:55:18.609Z,3.87
2018-07-31T15:57:47.167Z,4.30
2018-07-31T16:00:15.702Z,3.90
2018-07-31T16:02:44.065Z,3.90
2018-07-31T16:05:12.693Z,4.23
2018-07-31T16:07:40.992Z,4.17
2018-07-31T16:10:09.296Z,4.70
2018-07-31T16:12:37.669Z,3.50
2018-07-31T16:15:06.116Z,4.20
2018-07-31T16:17:34.432Z,4.17
2018-07-31T16:20:02.879Z,4.10
2018-07-31T16:22:31.211Z,5.03
2018-07-31T16:25:00.557Z,4.50
2018-07-31T16:27:28.905Z,4.27
2018-07-31T16:29:57.275Z,4.10
2018-07-31T16:32:25.656Z,3.33
2018-07-31T16:34:53.972Z,3.47
2018-07-31T16:37:22.260Z,3.80
2018-07-31T16:39:50.677Z,3.33
2018-07-31T16:42:19.172Z,4.07
2018-07-31T16:44:47.515Z,3.80
2018-07-31T16:47:15.971Z,3.97
2018-07-31T16:49:44.328Z,4.20
2018-07-31T16:52:12.868Z,4.03
2018-07-31T16:54:41.216Z,3.67
2018-07-31T16:57:09.551Z,3.53
2018-07-31T16:59:38.149Z,3.67
2018-07-31T17:02:06.499Z,3.73
2018-07-31T17:04:34.792Z,4.23
2018-07-31T17:07:03.324Z,2.90
2018-07-31T17:09:31.971Z,4.10
2018-07-31T17:12:00.257Z,3.23
2018-07-31T17:14:28.641Z,3.47
2018-07-31T17:16:57.081Z,3.33
2018-07-31T17:19:25.641Z,3.80
2018-07-31T17:21:54.153Z,3.60
2018-07-31T17:24:22.455Z,3.63
2018-07-31T17:26:50.828Z,3.07
2018-07-31T17:29:19.136Z,3.20
2018-07-31T17:31:47.534Z,3.73
2018-07-31T17:34:15.851Z,4.10
2018-07-31T17:36:44.142Z,3.57
2018-07-31T17:39:12.813Z,3.37
2018-07-31T17:41:41.308Z,3.70
2018-07-31T17:44:09.939Z,3.30
2018-07-31T17:46:38.229Z,3.00
2018-07-31T17:49:06.649Z,3.73
2018-07-31T17:51:35.008Z,3.67
2018-07-31T17:54:03.332Z,3.47
2018-07-31T17:56:31.666Z,3.20
2018-07-31T17:59:00.016Z,3.57
2018-07-31T18:01:28.577Z,3.33
2018-07-31T18:03:56.871Z,3.33
2018-07-31T18:06:25.183Z,4.30
2018-07-31T18:08:53.559Z,3.13
2018-07-31T18:11:22.185Z,3.47
2018-07-31T18:13:51.176Z,3.20
2018-07-31T18:16:19.712Z,2.87
2018-07-31T18:18:48.056Z,3.57
2018-07-31T18:21:16.381Z,3.30
2018-07-31T18:23:44.905Z,3.17
2018-07-31T18:26:13.176Z,2.87
2018-07-31T18:28:41.577Z,2.70
2018-07-31T18:31:09.986Z,3.30
2018-07-31T18:33:38.375Z,3.40
2018-07-31T18:36:06.741Z,4.20
2018-07-31T18:38:35.097Z,3.07
2018-07-31T18:41:03.537Z,3.07
2018-07-31T18:43:31.874Z,3.33
2018-07-31T18:46:00.201Z,3.53
2018-07-31T18:48:28.604Z,3.30
2018-07-31T18:50:56.957Z,3.20
2018-07-31T18:53:25.298Z,2.77
2018-07-31T18:55:53.818Z,3.50
2018-07-31T18:58:22.113Z,3.43
2018-07-31T19:00:50.557Z,3.30
2018-07-31T19:03:18.821Z,3.27
2018-07-31T19:05:47.330Z,3.40
2018-07-31T19:08:15.636Z,3.10
2018-07-31T19:10:43.967Z,2.73
2018-07-31T19:13:12.336Z,2.97
2018-07-31T19:15:40.777Z,3.10
2018-07-31T19:18:09.225Z,3.07
2018-07-31T19:20:37.513Z,2.90
2018-07-31T19:23:05.851Z,3.57
2018-07-31T19:25:34.147Z,3.40
2018-07-31T19:28:02.755Z,2.70
2018-07-31T19:30:31.081Z,3.33
2018-07-31T19:32:59.435Z,3.23
2018-07-31T19:35:27.776Z,3.10
2018-07-31T19:37:56.115Z,3.40
2018-07-31T19:40:24.980Z,3.03
2018-07-31T19:42:53.294Z,3.87
2018-07-31T19:45:22.757Z,3.50
2018-07-31T19:47:51.597Z,3.00
2018-07-31T19:50:19.877Z,2.93
2018-07-31T19:52:48.375Z,3.67
2018-07-31T19:55:16.653Z,3.50
2018-07-31T19:57:44.982Z,3.00
2018-07-31T20:00:13.558Z,2.93
2018-07-31T20:02:42.424Z,3.43
2018-07-31T20:05:10.725Z,3.40
2018-07-31T20:07:39.344Z,2.70
2018-07-31T20:10:07.659Z,2.87
2018-07-31T20:12:35.984Z,2.83
2018-07-31T20:15:04.361Z,2.77
2018-07-31T20:17:32.664Z,3.40
2018-07-31T20:20:01.082Z,3.30
2018-07-31T20:22:29.392Z,3.33
2018-07-31T20:24:57.707Z,2.97
2018-07-31T20:27:26.132Z,3.00
2018-07-31T20:29:54.460Z,3.57
2018-07-31T20:32:22.965Z,2.93
2018-07-31T20:34:51.396Z,3.33
2018-07-31T20:37:19.772Z,2.93
2018-07-31T20:39:48.091Z,2.70
2018-07-31T20:42:16.456Z,2.63
2018-07-31T20:44:44.860Z,2.70
2018-07-31T20:47:13.181Z,2.80
2018-07-31T20:49:41.631Z,2.97
2018-07-31T20:52:09.943Z,3.10
2018-07-31T20:54:38.415Z,2.60
2018-07-31T20:57:06.723Z,3.23
2018-07-31T20:59:35.032Z,2.60
2018-07-31T21:02:03.468Z,2.80
2018-07-31T21:04:31.901Z,2.70
2018-07-31T21:07:00.310Z,3.00
2018-07-31T21:09:28.642Z,3.30
2018-07-31T21:11:56.944Z,3.30
2018-07-31T21:14:25.391Z,3.00
2018-07-31T21:16:53.744Z,3.30
2018-07-31T21:19:22.202Z,2.80
2018-07-31T21:21:50.514Z,2.70
2018-07-31T21:24:18.822Z,2.83
2018-07-31T21:26:47.136Z,3.30
2018-07-31T21:29:15.656Z,2.97
2018-07-31T21:31:44.087Z,2.97
2018-07-31T21:34:12.416Z,3.17
2018-07-31T21:36:40.764Z,2.77
2018-07-31T21:39:10.463Z,3.23
2018-07-31T21:41:39.028Z,3.10
2018-07-31T21:44:07.296Z,3.20
2018-07-31T21:46:35.825Z,3.03
2018-07-31T21:49:04.274Z,3.60
2018-07-31T21:51:32.588Z,3.20
2018-07-31T21:54:00.912Z,3.20
2018-07-31T21:56:29.311Z,3.53
2018-07-31T21:58:57.731Z,2.47
2018-07-31T22:01:26.060Z,2.80
2018-07-31T22:03:54.464Z,3.50
2018-07-31T22:06:22.789Z,2.73
2018-07-31T22:08:51.110Z,3.20
2018-07-31T22:11:19.417Z,2.97
2018-07-31T22:13:47.913Z,2.63
2018-07-31T22:16:16.320Z,3.10
2018-07-31T22:18:44.728Z,2.97
2018-07-31T22:21:13.036Z,3.70
2018-07-31T22:23:41.391Z,3.20
2018-07-31T22:26:09.708Z,2.90
2018-07-31T22:28:38.058Z,3.63
2018-07-31T22:31:06.392Z,2.77
2018-07-31T22:33:34.727Z,3.00
2018-07-31T22:36:03.048Z,2.83
2018-07-31T22:38:31.333Z,2.40
2018-07-31T22:40:59.721Z,3.27
2018-07-31T22:43:28.270Z,3.27
2018-07-31T22:45:56.604Z,3.50
2018-07-31T22:48:24.916Z,2.80
2018-07-31T22:50:53.363Z,2.70
2018-07-31T22:53:22.136Z,2.73
2018-07-31T22:55:50.452Z,2.53
2018-07-31T22:58:18.857Z,2.30
2018-07-31T23:00:47.179Z,2.80
2018-07-31T23:03:15.540Z,2.90
2018-07-31T23:05:43.853Z,2.83
2018-07-31T23:08:12.224Z,2.90
2018-07-31T23:10:40.708Z,3.13
2018-07-31T23:13:08.996Z,3.07
2018-07-31T23:15:37.484Z,2.63
2018-07-31T23:18:05.813Z,2.70
2018-07-31T23:20:34.207Z,2.20
2018-07-31T23:23:02.626Z,2.90
2018-07-31T23:25:31.020Z,2.73
2018-07-31T23:27:59.347Z,2.57
2018-07-31T23:30:27.688Z,3.00
2018-07-31T23:32:56.096Z,2.87
2018-07-31T23:35:24.408Z,2.60
2018-07-31T23:37:53.292Z,3.00
2018-07-31T23:40:21.557Z,2.83
2018-07-31T23:42:49.940Z,3.13
2018-07-31T23:45:18.256Z,2.77
2018-07-31T23:47:46.743Z,2.50
2018-07-31T23:50:15.020Z,2.27
2018-07-31T23:52:43.350Z,2.93
2018-07-31T23:55:11.677Z,2.63
2018-07-31T23:57:40.181Z,2.73
